Time;durP1;ratioP1;P1;durP2;ratioP2;P2;SDS_P1;SDS_P2;PMS_P1;PMS_P2;Temp;Humidity;BMP_temperature;BMP_pressure;BME280_temperature;BME280_humidity;BME280_pressure;Samples;Min_cycle;Max_cycle;Signal;HPM_P1;HPM_P2
2022/07/18 00:01:39;;;;;;;5.00;4.18;;;15.10;99.90;;;;;;6241269;22;20043;-74
2022/07/18 00:04:05;;;;;;;6.35;4.32;;;15.10;99.90;;;;;;6266539;22;20030;-74
2022/07/18 00:06:31;;;;;;;7.03;3.95;;;15.10;99.90;;;;;;6242845;22;20386;-74
2022/07/18 00:08:57;;;;;;;6.68;4.38;;;15.10;99.90;;;;;;6240971;22;20023;-74
2022/07/18 00:11:22;;;;;;;7.72;4.40;;;15.10;99.90;;;;;;6267254;22;20027;-74
2022/07/18 00:13:51;;;;;;;4.22;3.72;;;15.10;99.90;;;;;;6240782;22;20343;-74
2022/07/18 00:16:17;;;;;;;6.75;4.32;;;15.10;99.90;;;;;;6267018;22;20043;-74
2022/07/18 00:18:44;;;;;;;4.43;4.03;;;15.10;99.90;;;;;;6266874;22;20550;-74
2022/07/18 00:21:10;;;;;;;5.47;4.40;;;15.10;99.90;;;;;;6216003;22;20393;-74
2022/07/18 00:23:36;;;;;;;7.03;4.80;;;15.10;99.90;;;;;;6268419;22;20020;-74
2022/07/18 00:26:01;;;;;;;7.57;5.57;;;15.10;99.90;;;;;;6268275;22;20320;-74
2022/07/18 00:28:27;;;;;;;12.02;4.90;;;15.10;99.90;;;;;;6241698;22;20031;-75
2022/07/18 00:30:53;;;;;;;6.18;5.10;;;15.10;99.90;;;;;;6266328;22;20079;-74
2022/07/18 00:33:19;;;;;;;7.00;4.75;;;15.10;99.90;;;;;;6269212;22;20438;-74
2022/07/18 00:35:45;;;;;;;8.68;5.05;;;15.10;99.90;;;;;;6268113;22;20019;-75
2022/07/18 00:38:10;;;;;;;8.02;4.85;;;15.00;99.90;;;;;;6268931;22;20034;-74
2022/07/18 00:40:36;;;;;;;9.00;5.80;;;15.10;99.90;;;;;;6267622;22;20027;-74
2022/07/18 00:43:02;;;;;;;8.82;6.32;;;15.00;99.90;;;;;;6241120;22;20019;-74
2022/07/18 00:45:28;;;;;;;8.45;6.22;;;15.00;99.90;;;;;;6241154;22;20027;-74
2022/07/18 00:47:54;;;;;;;12.05;6.07;;;15.00;99.90;;;;;;6265555;22;20098;-75
2022/07/18 00:50:21;;;;;;;7.43;6.10;;;15.00;99.90;;;;;;6267188;22;20102;-74
2022/07/18 00:52:48;;;;;;;8.68;5.90;;;15.00;99.90;;;;;;6240268;22;20020;-74
2022/07/18 00:55:15;;;;;;;6.63;6.03;;;15.00;99.90;;;;;;6241530;22;20023;-74
2022/07/18 00:57:42;;;;;;;8.82;6.32;;;15.00;99.90;;;;;;6268721;22;20351;-74
2022/07/18 01:02:56;;;;;;;15.10;5.47;;;15.00;99.90;;;;;;6267556;22;20075;-75
2022/07/18 01:05:21;;;;;;;8.48;5.65;;;15.00;99.90;;;;;;6265166;22;20016;-74
2022/07/18 01:07:47;;;;;;;6.88;4.97;;;15.00;99.90;;;;;;6267349;22;20023;-75
2022/07/18 01:10:13;;;;;;;13.25;5.55;;;14.90;99.90;;;;;;6240108;22;20078;-75
2022/07/18 01:12:39;;;;;;;6.53;5.30;;;14.90;99.90;;;;;;6216978;22;20016;-75
2022/07/18 01:15:06;;;;;;;7.43;5.65;;;14.80;99.90;;;;;;6241494;22;20024;-75
2022/07/18 01:17:32;;;;;;;6.30;5.03;;;14.80;99.90;;;;;;6266326;22;20012;-75
2022/07/18 01:19:58;;;;;;;13.65;6.03;;;14.80;99.90;;;;;;6267851;22;20383;-75
2022/07/18 01:22:24;;;;;;;9.38;5.43;;;14.70;99.90;;;;;;6265124;22;20233;-75
2022/07/18 01:24:49;;;;;;;10.73;6.03;;;14.80;99.90;;;;;;6267468;22;20095;-75
2022/07/18 01:27:17;;;;;;;10.13;5.38;;;14.80;99.90;;;;;;6265328;22;20024;-75
2022/07/18 01:29:43;;;;;;;7.90;5.00;;;14.80;99.90;;;;;;6268432;22;20046;-75
2022/07/18 01:32:10;;;;;;;8.70;4.70;;;14.80;99.90;;;;;;6266527;22;20070;-75
2022/07/18 01:34:36;;;;;;;6.53;5.40;;;14.80;99.90;;;;;;6266210;22;20024;-75
2022/07/18 01:37:03;;;;;;;8.05;5.95;;;14.80;99.90;;;;;;6267519;22;20027;-75
2022/07/18 01:39:29;;;;;;;8.45;5.32;;;14.80;99.90;;;;;;6264935;22;20027;-75
2022/07/18 01:42:06;;;;;;;6.88;4.43;;;14.80;99.90;;;;;;6242892;22;20024;-75
2022/07/18 01:44:33;;;;;;;9.40;4.05;;;14.80;99.90;;;;;;6241288;22;20022;-75
2022/07/18 01:47:00;;;;;;;10.23;5.53;;;14.80;99.90;;;;;;6269592;22;20024;-75
2022/07/18 01:49:26;;;;;;;14.40;4.60;;;14.70;99.90;;;;;;6267374;22;20047;-75
2022/07/18 01:51:53;;;;;;;7.50;4.38;;;14.70;99.90;;;;;;6268724;22;20405;-75
2022/07/18 01:54:23;;;;;;;8.77;5.95;;;14.70;99.90;;;;;;6243169;22;20051;-75
2022/07/18 01:56:49;;;;;;;13.38;6.38;;;14.60;99.90;;;;;;6267781;22;20023;-75
2022/07/18 01:59:15;;;;;;;7.93;5.07;;;14.60;99.90;;;;;;6269310;22;20028;-75
2022/07/18 02:01:40;;;;;;;8.35;5.93;;;14.60;99.90;;;;;;6241824;22;20022;-75
2022/07/18 02:04:06;;;;;;;10.77;5.88;;;14.60;99.90;;;;;;6269229;22;20016;-75
2022/07/18 02:06:32;;;;;;;8.70;5.80;;;14.60;99.90;;;;;;6241805;22;20015;-75
2022/07/18 02:08:58;;;;;;;8.02;5.72;;;14.60;99.90;;;;;;6243308;22;20023;-75
2022/07/18 02:11:23;;;;;;;8.88;5.78;;;14.60;99.90;;;;;;6242630;22;20034;-75
2022/07/18 02:13:49;;;;;;;7.35;5.82;;;14.60;99.90;;;;;;6267865;22;20506;-75
2022/07/18 02:16:15;;;;;;;6.97;5.22;;;14.70;99.90;;;;;;6269338;22;20027;-75
2022/07/18 02:18:41;;;;;;;10.10;5.03;;;14.70;99.90;;;;;;6241578;22;20012;-76
2022/07/18 02:21:07;;;;;;;15.98;6.05;;;14.70;99.90;;;;;;6243645;22;20358;-75
2022/07/18 02:23:34;;;;;;;11.00;5.28;;;14.70;99.90;;;;;;6241493;22;20081;-75
2022/07/18 02:25:59;;;;;;;12.45;6.20;;;14.80;99.90;;;;;;6244023;22;20031;-75
2022/07/18 02:28:26;;;;;;;8.93;4.95;;;14.80;99.90;;;;;;6267495;22;20024;-75
2022/07/18 02:30:52;;;;;;;6.90;5.18;;;14.80;99.90;;;;;;6243239;22;20069;-75
2022/07/18 02:33:17;;;;;;;11.20;6.22;;;14.80;99.90;;;;;;6268727;22;20047;-75
2022/07/18 02:35:44;;;;;;;13.85;4.93;;;14.80;99.90;;;;;;6241764;22;20034;-75
2022/07/18 02:38:11;;;;;;;10.40;5.45;;;14.80;99.90;;;;;;6243485;22;20446;-75
2022/07/18 02:40:37;;;;;;;7.53;5.70;;;14.80;99.90;;;;;;6266929;22;20024;-75
2022/07/18 02:43:03;;;;;;;9.90;6.22;;;14.80;99.90;;;;;;6268933;22;20477;-75
2022/07/18 02:45:29;;;;;;;10.85;5.35;;;14.80;99.90;;;;;;6266896;22;20019;-75
2022/07/18 02:47:55;;;;;;;8.70;5.50;;;14.80;99.90;;;;;;6242601;22;20028;-76
2022/07/18 02:50:21;;;;;;;9.80;6.18;;;14.90;99.90;;;;;;6243050;22;20343;-75
2022/07/18 02:52:48;;;;;;;8.13;5.25;;;14.90;99.90;;;;;;6241589;22;20020;-75
2022/07/18 02:55:14;;;;;;;14.35;6.50;;;14.90;99.90;;;;;;6268710;22;20027;-75
2022/07/18 02:57:40;;;;;;;12.20;6.10;;;14.90;99.90;;;;;;6266517;22;20023;-75
2022/07/18 03:00:09;;;;;;;9.80;5.95;;;14.80;99.90;;;;;;6243477;22;20019;-75
2022/07/18 03:02:35;;;;;;;13.80;5.88;;;14.90;99.90;;;;;;6266366;22;20054;-75
2022/07/18 03:05:02;;;;;;;6.28;4.95;;;14.80;99.90;;;;;;6268917;22;20378;-75
2022/07/18 03:07:28;;;;;;;6.90;5.30;;;14.80;99.90;;;;;;6241549;22;20012;-75
2022/07/18 03:09:54;;;;;;;15.82;6.40;;;14.70;99.90;;;;;;6242462;22;20049;-75
2022/07/18 03:12:20;;;;;;;9.00;5.78;;;14.70;99.90;;;;;;6268854;22;20019;-76
2022/07/18 03:14:45;;;;;;;13.00;6.30;;;14.70;99.90;;;;;;6266847;22;20454;-76
2022/07/18 03:17:11;;;;;;;12.40;6.40;;;14.70;99.90;;;;;;6268819;22;20142;-75
2022/07/18 03:19:37;;;;;;;13.13;5.80;;;14.70;99.90;;;;;;6240771;22;20018;-75
2022/07/18 03:22:04;;;;;;;19.15;6.00;;;14.70;99.90;;;;;;6268792;22;20024;-75
2022/07/18 03:24:30;;;;;;;13.60;6.15;;;14.70;99.90;;;;;;6241502;22;20098;-75
2022/07/18 03:26:56;;;;;;;11.98;5.22;;;14.70;99.90;;;;;;6242845;22;20059;-75
2022/07/18 03:29:22;;;;;;;17.23;5.95;;;14.70;99.90;;;;;;6241486;22;20020;-75
2022/07/18 03:31:48;;;;;;;13.50;5.45;;;14.70;99.90;;;;;;6241915;22;20011;-75
2022/07/18 03:34:14;;;;;;;13.77;5.65;;;14.60;99.90;;;;;;6243059;22;20015;-75
2022/07/18 03:36:40;;;;;;;10.98;5.53;;;14.50;99.90;;;;;;6266290;22;20451;-75
2022/07/18 03:39:08;;;;;;;18.10;5.55;;;14.50;99.90;;;;;;6217891;22;20058;-74
2022/07/18 03:41:34;;;;;;;16.00;5.45;;;14.50;99.90;;;;;;6266175;22;20016;-74
2022/07/18 03:44:00;;;;;;;12.43;5.30;;;14.50;99.90;;;;;;6268609;22;20023;-75
2022/07/18 03:46:26;;;;;;;21.25;5.35;;;14.50;99.90;;;;;;6267034;22;20020;-75
2022/07/18 03:48:51;;;;;;;12.98;5.55;;;14.60;99.90;;;;;;6241763;22;20019;-75
2022/07/18 03:51:17;;;;;;;16.08;6.40;;;14.70;99.90;;;;;;6268191;22;20388;-75
2022/07/18 03:53:43;;;;;;;16.75;5.55;;;14.70;99.90;;;;;;6266418;22;20375;-75
2022/07/18 03:56:09;;;;;;;19.13;5.45;;;14.80;99.90;;;;;;6243119;22;20020;-74
2022/07/18 03:58:34;;;;;;;19.92;5.50;;;14.80;99.90;;;;;;6240238;22;20026;-74
2022/07/18 04:01:00;;;;;;;11.65;5.47;;;14.80;99.90;;;;;;6268332;22;20019;-75
2022/07/18 04:03:26;;;;;;;11.05;5.15;;;14.80;99.90;;;;;;6266401;22;20011;-75
2022/07/18 04:05:52;;;;;;;13.45;4.60;;;14.80;99.90;;;;;;6241843;22;20098;-75
2022/07/18 04:08:18;;;;;;;16.67;5.40;;;14.80;99.90;;;;;;6242276;22;20030;-76
2022/07/18 04:10:44;;;;;;;19.83;5.68;;;14.80;99.90;;;;;;6265626;22;20023;-75
2022/07/18 04:13:10;;;;;;;22.05;6.07;;;14.80;99.90;;;;;;6243025;22;20024;-76
2022/07/18 04:15:37;;;;;;;24.95;5.65;;;14.90;99.90;;;;;;6265949;22;20102;-75
2022/07/18 04:18:04;;;;;;;12.43;5.15;;;14.90;99.90;;;;;;6267812;22;20015;-75
2022/07/18 04:20:30;;;;;;;18.77;6.50;;;14.90;99.90;;;;;;6265890;22;20451;-75
2022/07/18 04:22:59;;;;;;;15.82;5.28;;;15.00;99.90;;;;;;6268252;22;20011;-75
2022/07/18 04:25:26;;;;;;;17.17;5.20;;;15.00;99.90;;;;;;6267006;22;20024;-75
2022/07/18 04:27:53;;;;;;;25.50;6.05;;;15.00;99.90;;;;;;6241272;22;20328;-75
2022/07/18 04:30:21;;;;;;;18.67;6.13;;;15.00;99.90;;;;;;6267650;22;20018;-76
2022/07/18 04:32:47;;;;;;;26.45;6.18;;;15.00;99.90;;;;;;6265818;22;20392;-75
2022/07/18 04:35:13;;;;;;;17.58;6.13;;;15.00;99.90;;;;;;6268103;22;20350;-74
2022/07/18 04:37:39;;;;;;;16.15;5.50;;;15.10;99.90;;;;;;6240363;22;20059;-76
2022/07/18 04:40:06;;;;;;;23.23;6.63;;;15.10;99.90;;;;;;6267586;22;20012;-75
2022/07/18 04:42:32;;;;;;;25.20;5.65;;;15.10;99.90;;;;;;6241000;22;20046;-75
2022/07/18 04:44:59;;;;;;;11.07;5.05;;;15.20;99.90;;;;;;6241104;22;20019;-76
2022/07/18 04:47:28;;;;;;;10.40;5.40;;;15.20;99.90;;;;;;6267865;22;20059;-75
2022/07/18 04:49:54;;;;;;;14.90;5.35;;;15.20;99.90;;;;;;6265789;22;20030;-75
2022/07/18 04:52:20;;;;;;;9.45;5.15;;;15.30;99.90;;;;;;6267940;22;20073;-75
2022/07/18 04:54:46;;;;;;;12.30;5.22;;;15.30;99.90;;;;;;6239949;22;20015;-75
2022/07/18 04:57:14;;;;;;;19.70;5.47;;;15.40;99.90;;;;;;6241644;22;20034;-75
2022/07/18 04:59:41;;;;;;;23.95;5.60;;;15.40;99.90;;;;;;6266023;22;20369;-75
2022/07/18 05:02:08;;;;;;;15.60;5.35;;;15.50;99.90;;;;;;6267239;22;20024;-75
2022/07/18 05:04:33;;;;;;;23.10;6.18;;;15.60;99.90;;;;;;6240660;22;20022;-75
2022/07/18 05:06:59;;;;;;;18.17;5.90;;;15.60;99.90;;;;;;6267905;22;20019;-75
2022/07/18 05:09:26;;;;;;;24.30;6.13;;;15.60;99.90;;;;;;6267457;22;20015;-75
2022/07/18 05:11:52;;;;;;;15.57;5.93;;;15.60;99.90;;;;;;6265256;22;20077;-75
2022/07/18 05:14:17;;;;;;;19.20;5.80;;;15.70;99.90;;;;;;6267634;22;20019;-74
2022/07/18 05:16:43;;;;;;;16.90;5.97;;;15.70;99.90;;;;;;6215835;22;20077;-75
2022/07/18 05:19:09;;;;;;;14.05;5.43;;;15.80;99.90;;;;;;6270264;22;20019;-74
2022/07/18 05:21:34;;;;;;;13.63;5.78;;;15.80;99.90;;;;;;6268738;22;20027;-74
2022/07/18 05:24:00;;;;;;;15.18;6.00;;;15.90;99.90;;;;;;6243585;22;20016;-75
2022/07/18 05:26:26;;;;;;;9.57;5.25;;;16.00;99.90;;;;;;6218882;22;20054;-74
2022/07/18 05:28:52;;;;;;;9.25;5.22;;;16.00;99.90;;;;;;6241864;22;20055;-75
2022/07/18 05:31:17;;;;;;;12.20;4.80;;;16.10;99.90;;;;;;6218797;22;20015;-75
2022/07/18 05:33:43;;;;;;;12.95;5.47;;;16.20;99.90;;;;;;6241958;22;20443;-75
2022/07/18 05:36:09;;;;;;;9.07;4.85;;;16.20;99.90;;;;;;6269664;22;20027;-76
2022/07/18 05:38:35;;;;;;;8.50;4.88;;;16.30;99.90;;;;;;6268304;22;20066;-75
2022/07/18 05:41:01;;;;;;;9.77;4.88;;;16.30;99.90;;;;;;6269030;22;20439;-75
2022/07/18 05:43:26;;;;;;;13.73;5.25;;;16.40;99.90;;;;;;6243156;22;20039;-75
2022/07/18 05:45:52;;;;;;;8.07;4.90;;;16.40;99.90;;;;;;6267352;22;20023;-74
2022/07/18 05:48:18;;;;;;;5.63;4.50;;;16.50;99.90;;;;;;6269566;22;20024;-74
2022/07/18 05:50:46;;;;;;;11.50;4.90;;;16.60;99.90;;;;;;6269288;22;20016;-74
2022/07/18 05:53:12;;;;;;;11.13;5.45;;;16.70;99.90;;;;;;6269550;22;20012;-75
2022/07/18 05:55:38;;;;;;;8.65;4.20;;;16.80;99.90;;;;;;6267275;22;20024;-75
2022/07/18 05:58:04;;;;;;;4.28;3.88;;;16.90;99.90;;;;;;6269753;22;20015;-76
2022/07/18 06:00:30;;;;;;;6.00;3.67;;;17.00;99.90;;;;;;6268521;22;20018;-76
2022/07/18 06:02:56;;;;;;;6.10;3.80;;;17.10;99.90;;;;;;6268249;22;20113;-75
2022/07/18 06:05:22;;;;;;;5.05;3.42;;;17.20;99.90;;;;;;6243825;22;20015;-74
2022/07/18 06:07:47;;;;;;;7.32;3.97;;;17.30;99.90;;;;;;6267060;22;20024;-74
2022/07/18 06:10:13;;;;;;;6.22;3.45;;;17.30;99.90;;;;;;6244065;22;20034;-74
2022/07/18 06:12:39;;;;;;;5.97;3.40;;;17.40;99.90;;;;;;6266959;22;20458;-74
2022/07/18 06:15:09;;;;;;;5.30;3.58;;;17.50;99.90;;;;;;6269521;22;20011;-74
2022/07/18 06:17:34;;;;;;;8.10;3.55;;;17.60;99.90;;;;;;6242138;22;20030;-75
2022/07/18 06:20:00;;;;;;;7.93;3.65;;;17.80;99.90;;;;;;6242710;22;20338;-75
2022/07/18 06:22:26;;;;;;;6.70;3.20;;;17.90;99.90;;;;;;6243706;22;20779;-75
2022/07/18 06:24:52;;;;;;;9.57;3.42;;;18.00;99.90;;;;;;6266875;22;20022;-75
2022/07/18 06:27:17;;;;;;;7.68;3.28;;;18.20;99.90;;;;;;6268068;22;20023;-75
2022/07/18 06:29:43;;;;;;;4.70;3.47;;;18.30;99.90;;;;;;6266718;22;20019;-75
2022/07/18 06:32:09;;;;;;;9.70;3.10;;;18.40;99.90;;;;;;6269036;22;20015;-74
2022/07/18 06:34:35;;;;;;;6.18;3.35;;;18.60;99.90;;;;;;6269349;22;20051;-74
2022/07/18 06:37:00;;;;;;;6.22;2.83;;;18.70;99.90;;;;;;6243184;22;20024;-75
2022/07/18 06:39:26;;;;;;;10.45;2.92;;;18.80;99.90;;;;;;6268597;22;20073;-75
2022/07/18 06:41:51;;;;;;;7.63;3.03;;;18.90;99.90;;;;;;6269083;22;20384;-75
2022/07/18 06:44:17;;;;;;;3.50;2.58;;;19.10;99.90;;;;;;6270279;22;20027;-74
2022/07/18 06:46:43;;;;;;;5.60;3.17;;;19.30;97.50;;;;;;6265889;22;20015;-75
2022/07/18 06:49:09;;;;;;;4.00;2.67;;;19.50;98.10;;;;;;6269069;22;20091;-74
2022/07/18 06:51:40;;;;;;;5.47;2.85;;;19.70;95.60;;;;;;6267232;22;20026;-74
2022/07/18 06:54:05;;;;;;;4.72;2.78;;;19.90;91.00;;;;;;6268914;22;20102;-75
2022/07/18 06:56:31;;;;;;;5.70;2.92;;;20.00;91.60;;;;;;6268055;22;20015;-75
2022/07/18 06:58:57;;;;;;;6.72;2.25;;;20.10;87.50;;;;;;6242647;22;20069;-74
2022/07/18 07:01:23;;;;;;;2.65;1.80;;;20.10;80.90;;;;;;6242960;22;20114;-75
2022/07/18 07:03:49;;;;;;;5.47;2.33;;;20.20;83.00;;;;;;6241214;22;20047;-75
2022/07/18 07:06:15;;;;;;;7.82;2.33;;;20.40;87.30;;;;;;6242938;22;20293;-74
2022/07/18 07:08:42;;;;;;;4.18;1.90;;;20.50;74.40;;;;;;6240470;22;20022;-74
2022/07/18 07:11:10;;;;;;;;;;;20.60;74.70;;;;;;6269573;22;20114;-75
2022/07/18 07:13:36;;;;;;;3.67;1.67;;;20.70;74.40;;;;;;6267031;22;19947;-75
2022/07/18 07:16:04;;;;;;;4.20;2.05;;;20.90;82.20;;;;;;6242484;22;20458;-75
2022/07/18 07:18:29;;;;;;;5.63;2.20;;;21.00;59.40;;;;;;6268261;22;20462;-75
2022/07/18 07:20:55;;;;;;;2.97;2.00;;;21.20;65.10;;;;;;6241410;22;20024;-76
2022/07/18 07:23:21;;;;;;;3.25;1.92;;;21.40;65.80;;;;;;6243186;22;20016;-75
2022/07/18 07:25:46;;;;;;;3.83;1.88;;;21.50;56.80;;;;;;6266250;22;20098;-74
2022/07/18 07:28:12;;;;;;;3.63;1.85;;;21.60;56.80;;;;;;6267859;22;20015;-74
2022/07/18 07:30:38;;;;;;;6.05;1.95;;;21.80;60.90;;;;;;6266660;22;20012;-73
2022/07/18 07:33:07;;;;;;;2.80;1.63;;;22.10;56.80;;;;;;6242485;22;20095;-74
2022/07/18 07:35:33;;;;;;;5.73;1.90;;;22.50;56.50;;;;;;6267693;22;20042;-73
2022/07/18 07:37:59;;;;;;;2.35;1.73;;;22.90;41.60;;;;;;6265986;22;20764;-74
2022/07/18 07:40:27;;;;;;;6.25;1.90;;;23.10;31.90;;;;;;6267640;22;20027;-74
2022/07/18 07:43:09;;;;;;;4.50;2.00;;;23.40;31.40;;;;;;6240778;22;20050;-75
2022/07/18 07:45:35;;;;;;;3.20;1.90;;;23.60;24.60;;;;;;6269933;22;20031;-75
2022/07/18 07:48:01;;;;;;;4.03;1.70;;;23.90;15.60;;;;;;6240716;22;20394;-74
2022/07/18 07:50:27;;;;;;;3.47;1.83;;;24.30;18.90;;;;;;6267392;22;20079;-74
2022/07/18 07:52:53;;;;;;;7.82;2.22;;;24.70;14.30;;;;;;6268412;22;20042;-73
2022/07/18 07:55:18;;;;;;;3.47;1.52;;;25.10;6.20;;;;;;6216138;22;20027;-73
2022/07/18 07:57:44;;;;;;;2.38;1.85;;;25.40;6.80;;;;;;6216599;22;20544;-74
2022/07/18 08:00:10;;;;;;;5.15;2.10;;;25.70;3.40;;;;;;6240061;22;20020;-74
2022/07/18 08:02:36;;;;;;;4.22;1.90;;;25.70;2.20;;;;;;6267409;22;20090;-74
2022/07/18 08:05:03;;;;;;;5.20;1.83;;;25.50;1.00;;;;;;6265267;22;20331;-74
2022/07/18 08:07:28;;;;;;;3.10;1.67;;;25.40;1.00;;;;;;6240978;22;20019;-73
2022/07/18 08:09:54;;;;;;;4.93;1.48;;;25.20;1.00;;;;;;6240186;22;20834;-75
2022/07/18 08:12:20;;;;;;;2.70;1.40;;;25.40;1.00;;;;;;6266900;22;20020;-75
2022/07/18 08:14:46;;;;;;;1.40;1.30;;;25.40;1.00;;;;;;6267301;22;20027;-74
2022/07/18 08:17:11;;;;;;;8.52;1.85;;;25.60;1.00;;;;;;6240543;22;20094;-74
2022/07/18 08:19:37;;;;;;;2.92;1.52;;;25.80;1.00;;;;;;6267435;22;20023;-74
2022/07/18 08:22:03;;;;;;;2.15;1.50;;;25.90;1.00;;;;;;6265676;22;20023;-74
2022/07/18 08:24:28;;;;;;;5.03;1.50;;;25.90;1.00;;;;;;6242125;22;20506;-74
2022/07/18 08:26:54;;;;;;;4.47;1.50;;;25.80;1.00;;;;;;6265708;22;20020;-74
2022/07/18 08:29:20;;;;;;;6.20;1.58;;;25.80;1.00;;;;;;6269543;22;20024;-75
2022/07/18 08:31:46;;;;;;;7.00;1.27;;;26.10;1.00;;;;;;6267886;22;20023;-74
2022/07/18 08:34:11;;;;;;;3.97;1.83;;;26.30;1.00;;;;;;6266778;22;20054;-72
2022/07/18 08:36:37;;;;;;;2.97;1.67;;;26.60;1.00;;;;;;6241789;22;20023;-71
2022/07/18 08:39:03;;;;;;;7.10;1.55;;;26.90;1.00;;;;;;6267005;22;20443;-71
2022/07/18 08:41:30;;;;;;;4.88;1.48;;;27.10;1.00;;;;;;6244012;22;20393;-71
2022/07/18 08:43:56;;;;;;;3.72;1.60;;;27.30;1.00;;;;;;6267306;22;20286;-72
2022/07/18 08:46:23;;;;;;;9.10;1.55;;;27.40;1.00;;;;;;6267061;22;20024;-71
2022/07/18 08:48:51;;;;;;;2.42;1.55;;;27.30;1.00;;;;;;6265700;22;20069;-71
2022/07/18 08:51:18;;;;;;;5.43;1.80;;;27.20;1.00;;;;;;6266188;22;20023;-71
2022/07/18 08:53:48;;;;;;;2.30;1.30;;;27.00;1.00;;;;;;6267117;22;20106;-71
2022/07/18 08:56:17;;;;;;;7.63;1.58;;;26.80;1.00;;;;;;6267465;22;20043;-71
2022/07/18 08:58:42;;;;;;;8.43;1.20;;;26.60;1.00;;;;;;6269237;22;20253;-71
2022/07/18 09:01:08;;;;;;;3.88;1.35;;;26.50;1.00;;;;;;6235282;22;20055;-71
2022/07/18 09:03:34;;;;;;;2.70;1.20;;;26.30;1.00;;;;;;6239300;22;20023;-71
2022/07/18 09:06:12;;;;;;;3.20;1.75;;;26.30;1.00;;;;;;6237634;22;20015;-71
2022/07/18 09:08:40;;;;;;;6.53;1.10;;;26.20;1.00;;;;;;6263999;22;20022;-70
2022/07/18 09:11:11;;;;;;;4.03;1.10;;;26.20;1.00;;;;;;6264092;22;20016;-72
2022/07/18 09:13:39;;;;;;;1.10;1.00;;;26.10;1.00;;;;;;6237342;22;20022;-71
2022/07/18 09:16:08;;;;;;;2.67;1.30;;;25.80;1.00;;;;;;6238363;22;20024;-71
2022/07/18 09:18:39;;;;;;;3.40;0.80;;;25.60;1.00;;;;;;6262886;22;20091;-71
2022/07/18 09:21:09;;;;;;;3.75;1.38;;;25.40;1.00;;;;;;6264671;22;20034;-71
2022/07/18 09:23:37;;;;;;;1.15;0.88;;;25.20;1.00;;;;;;6240433;22;20027;-71
2022/07/18 09:26:04;;;;;;;4.53;1.10;;;25.20;1.00;;;;;;6265217;22;20016;-71
2022/07/18 09:28:48;;;;;;;2.85;1.23;;;25.20;1.00;;;;;;6266620;22;20274;-70
2022/07/18 09:31:19;;;;;;;3.28;1.17;;;25.30;1.00;;;;;;6239082;22;20437;-71
2022/07/18 09:33:53;;;;;;;2.55;1.20;;;25.30;1.00;;;;;;6265429;22;20028;-71
2022/07/18 09:36:18;;;;;;;6.70;1.00;;;25.30;1.00;;;;;;6263880;22;20031;-71
2022/07/18 09:38:48;;;;;;;1.65;0.93;;;25.40;1.00;;;;;;6239931;22;20047;-72
2022/07/18 09:41:15;;;;;;;4.78;1.30;;;25.50;1.00;;;;;;6264819;22;20054;-72
2022/07/18 09:43:41;;;;;;;7.00;1.20;;;25.60;1.00;;;;;;6263261;22;20019;-71
2022/07/18 09:46:08;;;;;;;3.50;1.20;;;25.70;1.00;;;;;;6262893;22;20632;-71
2022/07/18 09:48:34;;;;;;;1.60;0.73;;;25.80;1.00;;;;;;6264055;22;20055;-71
2022/07/18 09:51:03;;;;;;;10.50;1.15;;;26.00;1.00;;;;;;6267715;22;20027;-72
2022/07/18 09:53:37;;;;;;;3.85;1.50;;;26.10;1.00;;;;;;6268921;22;20014;-71
2022/07/18 09:56:08;;;;;;;4.47;1.20;;;26.30;1.00;;;;;;6264599;22;20472;-72
2022/07/18 09:58:37;;;;;;;3.55;1.17;;;26.50;1.00;;;;;;6267061;22;20023;-71
2022/07/18 10:01:04;;;;;;;;;;;26.70;1.00;;;;;;6265187;22;20422;-71
2022/07/18 10:03:30;;;;;;;2.00;1.15;;;26.80;1.00;;;;;;6268816;22;20229;-72
2022/07/18 10:05:58;;;;;;;1.70;1.35;;;26.80;1.00;;;;;;6267429;22;20047;-72
2022/07/18 10:08:26;;;;;;;5.32;1.00;;;26.90;1.00;;;;;;6268125;22;20020;-71
2022/07/18 10:10:53;;;;;;;3.37;1.50;;;26.80;1.00;;;;;;6266933;22;20052;-72
2022/07/18 10:13:21;;;;;;;10.63;1.25;;;26.80;1.00;;;;;;6267497;22;20251;-71
2022/07/18 10:15:48;;;;;;;3.90;1.35;;;26.90;1.00;;;;;;6268486;22;20023;-72
2022/07/18 10:18:18;;;;;;;5.05;1.30;;;26.90;1.00;;;;;;6266597;22;20019;-71
2022/07/18 10:21:01;;;;;;;6.82;1.50;;;26.90;1.00;;;;;;6268387;22;20172;-70
2022/07/18 10:23:33;;;;;;;7.07;1.30;;;26.90;1.00;;;;;;6266977;22;20440;-72
2022/07/18 10:26:05;;;;;;;3.58;1.20;;;27.00;1.00;;;;;;6242568;22;20522;-71
2022/07/18 10:28:31;;;;;;;3.95;1.00;;;27.10;1.00;;;;;;6268462;22;20130;-72
2022/07/18 10:31:16;;;;;;;9.07;1.20;;;27.30;1.00;;;;;;6267743;22;20016;-71
2022/07/18 10:34:09;;;;;;;3.33;1.40;;;27.50;1.00;;;;;;6266741;22;20066;-72
2022/07/18 10:36:39;;;;;;;3.38;1.17;;;27.30;1.00;;;;;;6265248;22;20364;-72
2022/07/18 10:39:14;;;;;;;6.43;1.40;;;27.10;1.00;;;;;;6243579;22;20028;-73
2022/07/18 10:41:39;;;;;;;3.92;1.33;;;26.90;1.00;;;;;;6267141;22;20435;-71
2022/07/18 10:44:24;;;;;;;4.18;1.80;;;26.80;1.00;;;;;;6240631;22;20031;-72
2022/07/18 10:47:17;;;;;;;3.42;1.40;;;26.80;1.00;;;;;;6266874;22;20024;-71
2022/07/18 10:49:49;;;;;;;4.78;1.73;;;26.90;1.00;;;;;;6267135;22;20027;-72
2022/07/18 10:52:30;;;;;;;8.20;1.42;;;27.00;1.00;;;;;;6241658;22;20019;-71
2022/07/18 10:55:23;;;;;;;3.47;1.30;;;27.30;1.00;;;;;;6267149;22;20034;-71
2022/07/18 10:57:49;;;;;;;6.45;1.45;;;27.50;1.00;;;;;;6267480;22;20064;-72
2022/07/18 11:00:37;;;;;;;6.55;1.60;;;27.60;1.00;;;;;;6266908;22;20299;-72
2022/07/18 11:03:13;;;;;;;5.47;1.30;;;27.70;1.00;;;;;;6240704;22;20532;-72
2022/07/18 11:05:50;;;;;;;3.58;1.38;;;27.60;1.00;;;;;;6269251;22;20027;-72
2022/07/18 11:08:18;;;;;;;1.92;1.30;;;27.70;1.00;;;;;;6269026;22;20024;-73
2022/07/18 11:10:45;;;;;;;7.55;1.88;;;27.70;1.00;;;;;;6266233;22;20020;-72
2022/07/18 11:16:15;;;;;;;2.92;1.60;;;27.90;1.00;;;;;;6266047;22;20034;-72
2022/07/18 11:18:44;;;;;;;5.00;1.80;;;27.90;1.00;;;;;;6240436;22;20022;-72
2022/07/18 11:21:29;;;;;;;3.67;1.60;;;28.00;1.00;;;;;;6266158;22;20011;-72
2022/07/18 11:24:07;;;;;;;16.45;1.52;;;28.20;1.00;;;;;;6266263;22;20102;-72
2022/07/18 11:26:34;;;;;;;3.97;1.95;;;28.40;1.00;;;;;;6267793;22;20080;-72
2022/07/18 11:29:04;;;;;;;7.38;1.52;;;28.50;1.00;;;;;;6242162;22;20470;-72
2022/07/18 11:31:31;;;;;;;7.78;2.17;;;28.60;1.00;;;;;;6240860;22;20130;-72
2022/07/18 11:34:00;;;;;;;2.13;1.55;;;28.70;1.00;;;;;;6268392;22;20015;-71
2022/07/18 11:36:31;;;;;;;8.30;2.00;;;28.70;1.00;;;;;;6240307;22;20480;-72
2022/07/18 11:39:01;;;;;;;6.07;2.47;;;28.80;1.00;;;;;;6268013;22;20102;-73
2022/07/18 11:41:27;;;;;;;3.38;1.80;;;28.90;1.00;;;;;;6268366;22;20050;-72
2022/07/18 11:43:55;;;;;;;2.88;1.77;;;28.90;1.00;;;;;;6267912;22;20016;-73
2022/07/18 11:46:23;;;;;;;4.65;1.55;;;28.80;1.00;;;;;;6267123;22;20026;-72
2022/07/18 11:48:58;;;;;;;9.10;1.75;;;28.70;1.00;;;;;;6266649;22;20027;-72
2022/07/18 11:51:24;;;;;;;3.15;1.73;;;28.70;1.00;;;;;;6268567;22;20020;-73
2022/07/18 11:53:52;;;;;;;4.30;2.03;;;28.70;1.00;;;;;;6266185;22;20077;-72
2022/07/18 11:56:19;;;;;;;2.85;1.83;;;28.80;1.00;;;;;;6267445;22;20027;-72
2022/07/18 11:58:48;;;;;;;2.78;1.52;;;28.80;1.00;;;;;;6241188;22;20031;-72
2022/07/18 12:01:14;;;;;;;2.75;2.00;;;28.80;1.00;;;;;;6266973;22;20070;-72
2022/07/18 12:03:44;;;;;;;2.13;1.60;;;28.80;1.00;;;;;;6267510;22;20028;-71
2022/07/18 12:06:23;;;;;;;2.22;2.05;;;28.80;1.00;;;;;;6240141;22;20370;-72
2022/07/18 12:09:00;;;;;;;4.10;1.85;;;28.90;1.00;;;;;;6267794;22;20023;-72
2022/07/18 12:11:34;;;;;;;2.60;1.92;;;28.90;1.00;;;;;;6265606;22;20023;-72
2022/07/18 12:14:09;;;;;;;7.03;2.30;;;28.90;1.00;;;;;;6267826;22;20019;-72
2022/07/18 12:16:40;;;;;;;6.00;2.22;;;28.80;1.00;;;;;;6267437;22;20325;-72
2022/07/18 12:19:18;;;;;;;2.83;2.17;;;28.70;1.00;;;;;;6268525;22;20392;-72
2022/07/18 12:22:02;;;;;;;2.58;2.28;;;28.70;1.00;;;;;;6241787;22;20332;-72
2022/07/18 12:24:37;;;;;;;2.08;1.88;;;28.60;1.00;;;;;;6239447;22;20482;-72
2022/07/18 12:27:18;;;;;;;4.50;1.95;;;28.60;1.00;;;;;;6266557;22;20482;-72
2022/07/18 12:30:11;;;;;;;6.75;2.42;;;28.70;1.00;;;;;;6242575;22;20024;-72
2022/07/18 12:32:56;;;;;;;2.92;2.00;;;28.80;1.00;;;;;;6265538;22;20030;-73
2022/07/18 12:35:27;;;;;;;6.57;2.05;;;29.00;1.00;;;;;;6266990;22;20015;-72
2022/07/18 12:38:05;;;;;;;3.35;2.05;;;29.10;1.00;;;;;;6241022;22;20034;-73
2022/07/18 12:41:00;;;;;;;2.92;2.00;;;29.30;1.00;;;;;;6266031;22;20019;-72
2022/07/18 12:43:31;;;;;;;7.20;2.75;;;29.40;1.00;;;;;;6263637;22;20027;-72
2022/07/18 12:45:59;;;;;;;2.33;1.90;;;29.50;1.00;;;;;;6265486;22;20049;-72
2022/07/18 12:48:30;;;;;;;3.85;2.35;;;29.50;1.00;;;;;;6267192;22;20463;-72
2022/07/18 12:51:00;;;;;;;2.88;2.00;;;29.60;1.00;;;;;;6266725;22;20094;-72
2022/07/18 12:53:27;;;;;;;4.45;2.45;;;29.60;1.00;;;;;;6265469;22;20168;-72
2022/07/18 12:55:54;;;;;;;4.47;2.35;;;29.60;1.00;;;;;;6266784;22;20042;-72
2022/07/18 12:58:20;;;;;;;3.90;2.13;;;29.50;1.00;;;;;;6263219;22;20077;-72